CheckWX is a tool to help pilots better visualize weather data.  It is not intended as a substitute for an official pre-flight weather briefing.

06:48:48 UTC

SACO TAF
Ingeniero Ambrosio Taravella Airport
Cordoba, Argentina
TAF SACO 170500Z 1706/1806 07005KT 9999 OVC015 TX14/1718Z TN04/1710Z BECMG 1707/1709 OVC008 BECMG 1712/1714 BKN015 OVC030 BECMG 1722/1800 OVC010 PROB40 1801/1805 3000 DZRA OVC006

Jun-17@
06:00 UTC

Jun-17 @ 06:00 UTC

Jun-17@
07:00 UTC

Jun-17 @ 07:00 UTC

TAF SACO 170500Z 1706/1806 07005KT 9999 OVC015 TX14/1718Z TN04/1710Z
Wind
  • 070° at 5 KTS
Cloud Levels
  • Overcast at 1,500' AGL

Jun-17@
07:00 UTC

Jun-17 @ 07:00 UTC

Jun-17@
12:00 UTC

Jun-17 @ 12:00 UTC

BECMG 1707/1709 OVC008

Becoming

Becoming Conditions expected by Mon, Jun 17, 2019 @ 09:00 UTC

Wind
  • 070° at 5 KTS
Cloud Levels
  • Overcast at 800' AGL

Jun-17@
12:00 UTC

Jun-17 @ 12:00 UTC

Jun-17@
22:00 UTC

Jun-17 @ 22:00 UTC

BECMG 1712/1714 BKN015 OVC030

Becoming

Becoming Conditions expected by Mon, Jun 17, 2019 @ 14:00 UTC

Wind
  • 070° at 5 KTS
Cloud Levels
  • Broken at 1,500' AGL
  • Overcast at 3,000' AGL

Jun-17@
22:00 UTC

Jun-17 @ 22:00 UTC

Jun-18@
06:00 UTC

Jun-18 @ 06:00 UTC

BECMG 1722/1800 OVC010

Becoming

Becoming Conditions expected by Tue, Jun 18, 2019 @ 00:00 UTC

Wind
  • 070° at 5 KTS
Cloud Levels
  • Overcast at 1,000' AGL

Jun-18@
01:00 UTC

Jun-18 @ 01:00 UTC

Jun-18@
05:00 UTC

Jun-18 @ 05:00 UTC

PROB40 1801/1805 3000 DZRA OVC006

Probable - 40% Likelihood

Probable - 40% Likelihood during this time.

Conditions
Drizzle, Rain
Cloud Levels
  • Overcast at 600' AGL